sensor_id;sensor_type;location;lat;lon;timestamp;temperature;humidity
7232;DHT22;3657;49.630;11.018;2023-04-24T00:02:19;13.10;99.90
7232;DHT22;3657;49.630;11.018;2023-04-24T00:04:45;12.90;99.90
7232;DHT22;3657;49.630;11.018;2023-04-24T00:07:12;12.80;99.90
7232;DHT22;3657;49.630;11.018;2023-04-24T00:09:39;12.70;99.90
7232;DHT22;3657;49.630;11.018;2023-04-24T00:12:06;13.00;99.90
7232;DHT22;3657;49.630;11.018;2023-04-24T00:14:33;13.30;99.90
7232;DHT22;3657;49.630;11.018;2023-04-24T00:17:03;13.40;99.90
7232;DHT22;3657;49.630;11.018;2023-04-24T00:19:31;13.40;99.90
7232;DHT22;3657;49.630;11.018;2023-04-24T00:21:57;13.30;99.90
7232;DHT22;3657;49.630;11.018;2023-04-24T00:24:24;13.10;99.90
7232;DHT22;3657;49.630;11.018;2023-04-24T00:26:51;12.90;99.90
7232;DHT22;3657;49.630;11.018;2023-04-24T00:29:17;12.70;99.90
7232;DHT22;3657;49.630;11.018;2023-04-24T00:31:44;12.70;99.90
7232;DHT22;3657;49.630;11.018;2023-04-24T00:34:11;12.80;99.90
7232;DHT22;3657;49.630;11.018;2023-04-24T00:36:39;12.60;99.90
7232;DHT22;3657;49.630;11.018;2023-04-24T00:39:06;12.50;99.90
7232;DHT22;3657;49.630;11.018;2023-04-24T00:41:34;12.30;99.90
7232;DHT22;3657;49.630;11.018;2023-04-24T00:44:00;12.20;99.90
7232;DHT22;3657;49.630;11.018;2023-04-24T00:46:28;12.50;99.90
7232;DHT22;3657;49.630;11.018;2023-04-24T00:48:56;12.80;99.90
7232;DHT22;3657;49.630;11.018;2023-04-24T00:51:22;13.10;99.90
7232;DHT22;3657;49.630;11.018;2023-04-24T00:53:51;13.20;99.90
7232;DHT22;3657;49.630;11.018;2023-04-24T00:56:18;13.20;99.90
7232;DHT22;3657;49.630;11.018;2023-04-24T00:58:45;13.30;99.90
7232;DHT22;3657;49.630;11.018;2023-04-24T01:01:12;13.30;99.90
7232;DHT22;3657;49.630;11.018;2023-04-24T01:03:39;13.40;99.90
7232;DHT22;3657;49.630;11.018;2023-04-24T01:06:06;13.40;99.90
7232;DHT22;3657;49.630;11.018;2023-04-24T01:08:34;13.30;99.90
7232;DHT22;3657;49.630;11.018;2023-04-24T01:11:04;13.10;99.90
7232;DHT22;3657;49.630;11.018;2023-04-24T01:13:31;13.00;99.90
7232;DHT22;3657;49.630;11.018;2023-04-24T01:15:59;12.90;99.90
7232;DHT22;3657;49.630;11.018;2023-04-24T01:18:28;13.10;99.90
7232;DHT22;3657;49.630;11.018;2023-04-24T01:20:57;13.20;99.90
7232;DHT22;3657;49.630;11.018;2023-04-24T01:23:26;13.20;99.90
7232;DHT22;3657;49.630;11.018;2023-04-24T01:25:53;13.30;99.90
7232;DHT22;3657;49.630;11.018;2023-04-24T01:28:20;13.30;99.90
7232;DHT22;3657;49.630;11.018;2023-04-24T01:30:47;13.40;99.90
7232;DHT22;3657;49.630;11.018;2023-04-24T01:33:14;13.50;99.90
7232;DHT22;3657;49.630;11.018;2023-04-24T01:35:41;13.50;99.90
7232;DHT22;3657;49.630;11.018;2023-04-24T01:38:07;13.50;99.90
7232;DHT22;3657;49.630;11.018;2023-04-24T01:40:35;13.50;99.90
7232;DHT22;3657;49.630;11.018;2023-04-24T01:43:02;13.60;99.90
7232;DHT22;3657;49.630;11.018;2023-04-24T01:45:29;13.60;99.90
7232;DHT22;3657;49.630;11.018;2023-04-24T01:47:56;13.60;99.90
7232;DHT22;3657;49.630;11.018;2023-04-24T01:50:23;13.70;99.90
7232;DHT22;3657;49.630;11.018;2023-04-24T01:52:50;13.70;99.90
7232;DHT22;3657;49.630;11.018;2023-04-24T01:55:16;13.60;99.90
7232;DHT22;3657;49.630;11.018;2023-04-24T01:57:44;13.60;99.90
7232;DHT22;3657;49.630;11.018;2023-04-24T02:00:11;13.60;99.90
7232;DHT22;3657;49.630;11.018;2023-04-24T02:02:39;13.60;99.90
7232;DHT22;3657;49.630;11.018;2023-04-24T02:05:06;13.50;99.90
7232;DHT22;3657;49.630;11.018;2023-04-24T02:07:33;13.50;99.90
7232;DHT22;3657;49.630;11.018;2023-04-24T02:10:00;13.40;99.90
7232;DHT22;3657;49.630;11.018;2023-04-24T02:12:27;13.40;99.90
7232;DHT22;3657;49.630;11.018;2023-04-24T02:14:55;13.30;99.90
7232;DHT22;3657;49.630;11.018;2023-04-24T02:17:21;13.40;99.90
7232;DHT22;3657;49.630;11.018;2023-04-24T02:19:48;13.40;99.90
7232;DHT22;3657;49.630;11.018;2023-04-24T02:22:15;13.40;99.90
7232;DHT22;3657;49.630;11.018;2023-04-24T02:24:41;13.40;99.90
7232;DHT22;3657;49.630;11.018;2023-04-24T02:27:08;13.40;99.90
7232;DHT22;3657;49.630;11.018;2023-04-24T02:29:35;13.30;99.90
7232;DHT22;3657;49.630;11.018;2023-04-24T02:32:03;13.30;99.90
7232;DHT22;3657;49.630;11.018;2023-04-24T02:34:29;13.30;99.90
7232;DHT22;3657;49.630;11.018;2023-04-24T02:36:56;13.20;99.90
7232;DHT22;3657;49.630;11.018;2023-04-24T02:39:23;13.10;99.90
7232;DHT22;3657;49.630;11.018;2023-04-24T02:41:49;13.10;99.90
7232;DHT22;3657;49.630;11.018;2023-04-24T02:44:16;13.20;99.90
7232;DHT22;3657;49.630;11.018;2023-04-24T02:46:43;13.20;99.90
7232;DHT22;3657;49.630;11.018;2023-04-24T02:49:13;13.20;99.90
7232;DHT22;3657;49.630;11.018;2023-04-24T02:51:40;13.00;99.90
7232;DHT22;3657;49.630;11.018;2023-04-24T02:54:07;13.10;99.90
7232;DHT22;3657;49.630;11.018;2023-04-24T02:56:35;13.10;99.90
7232;DHT22;3657;49.630;11.018;2023-04-24T02:59:01;13.10;99.90
7232;DHT22;3657;49.630;11.018;2023-04-24T03:01:28;13.20;99.90
7232;DHT22;3657;49.630;11.018;2023-04-24T03:03:55;13.20;99.90
7232;DHT22;3657;49.630;11.018;2023-04-24T03:06:23;13.20;99.90
7232;DHT22;3657;49.630;11.018;2023-04-24T03:08:49;13.20;99.90
7232;DHT22;3657;49.630;11.018;2023-04-24T03:11:16;13.00;99.90
7232;DHT22;3657;49.630;11.018;2023-04-24T03:13:43;13.10;99.90
7232;DHT22;3657;49.630;11.018;2023-04-24T03:16:10;13.00;99.90
7232;DHT22;3657;49.630;11.018;2023-04-24T03:18:36;12.90;99.90
7232;DHT22;3657;49.630;11.018;2023-04-24T03:21:03;12.90;99.90
7232;DHT22;3657;49.630;11.018;2023-04-24T03:23:31;12.90;99.90
7232;DHT22;3657;49.630;11.018;2023-04-24T03:25:57;12.90;99.90
7232;DHT22;3657;49.630;11.018;2023-04-24T03:28:24;12.70;99.90
7232;DHT22;3657;49.630;11.018;2023-04-24T03:30:51;12.60;99.90
7232;DHT22;3657;49.630;11.018;2023-04-24T03:33:18;12.50;99.90
7232;DHT22;3657;49.630;11.018;2023-04-24T03:35:44;12.60;99.90
7232;DHT22;3657;49.630;11.018;2023-04-24T03:38:11;12.50;99.90
7232;DHT22;3657;49.630;11.018;2023-04-24T03:40:39;12.50;99.90
7232;DHT22;3657;49.630;11.018;2023-04-24T03:43:06;12.50;99.90
7232;DHT22;3657;49.630;11.018;2023-04-24T03:45:32;12.40;99.90
7232;DHT22;3657;49.630;11.018;2023-04-24T03:47:59;12.20;99.90
7232;DHT22;3657;49.630;11.018;2023-04-24T03:50:25;12.30;99.90
7232;DHT22;3657;49.630;11.018;2023-04-24T03:52:54;12.40;99.90
7232;DHT22;3657;49.630;11.018;2023-04-24T03:55:21;12.40;99.90
7232;DHT22;3657;49.630;11.018;2023-04-24T03:57:49;12.40;99.90
7232;DHT22;3657;49.630;11.018;2023-04-24T04:00:15;12.60;99.90
7232;DHT22;3657;49.630;11.018;2023-04-24T04:02:44;12.60;99.90
7232;DHT22;3657;49.630;11.018;2023-04-24T04:05:10;12.70;99.90
7232;DHT22;3657;49.630;11.018;2023-04-24T04:07:37;12.60;99.90
7232;DHT22;3657;49.630;11.018;2023-04-24T04:10:04;12.60;99.90
7232;DHT22;3657;49.630;11.018;2023-04-24T04:12:32;12.70;99.90
7232;DHT22;3657;49.630;11.018;2023-04-24T04:15:00;12.70;99.90
7232;DHT22;3657;49.630;11.018;2023-04-24T04:17:27;12.70;99.90
7232;DHT22;3657;49.630;11.018;2023-04-24T04:19:53;12.70;99.90
7232;DHT22;3657;49.630;11.018;2023-04-24T04:22:20;12.50;99.90
7232;DHT22;3657;49.630;11.018;2023-04-24T04:24:47;12.40;99.90
7232;DHT22;3657;49.630;11.018;2023-04-24T04:27:13;12.10;99.90
7232;DHT22;3657;49.630;11.018;2023-04-24T04:29:41;11.80;99.90
7232;DHT22;3657;49.630;11.018;2023-04-24T04:32:10;11.60;99.90
7232;DHT22;3657;49.630;11.018;2023-04-24T04:34:37;11.60;99.90
7232;DHT22;3657;49.630;11.018;2023-04-24T04:37:05;11.70;99.90
7232;DHT22;3657;49.630;11.018;2023-04-24T04:39:31;11.70;99.90
7232;DHT22;3657;49.630;11.018;2023-04-24T04:41:58;11.70;99.90
7232;DHT22;3657;49.630;11.018;2023-04-24T04:44:25;11.80;99.90
7232;DHT22;3657;49.630;11.018;2023-04-24T04:46:54;11.90;99.90
7232;DHT22;3657;49.630;11.018;2023-04-24T04:49:23;12.00;99.90
7232;DHT22;3657;49.630;11.018;2023-04-24T04:51:50;12.10;99.90
7232;DHT22;3657;49.630;11.018;2023-04-24T04:54:17;12.20;99.90
7232;DHT22;3657;49.630;11.018;2023-04-24T04:56:43;12.10;99.90
7232;DHT22;3657;49.630;11.018;2023-04-24T04:59:10;12.10;99.90
7232;DHT22;3657;49.630;11.018;2023-04-24T05:01:38;12.20;99.90
7232;DHT22;3657;49.630;11.018;2023-04-24T05:04:04;12.00;99.90
7232;DHT22;3657;49.630;11.018;2023-04-24T05:06:32;11.90;99.90
7232;DHT22;3657;49.630;11.018;2023-04-24T05:09:02;11.60;99.90
7232;DHT22;3657;49.630;11.018;2023-04-24T05:11:29;11.50;99.90
7232;DHT22;3657;49.630;11.018;2023-04-24T05:13:56;11.60;99.90
7232;DHT22;3657;49.630;11.018;2023-04-24T05:16:22;11.80;99.90
7232;DHT22;3657;49.630;11.018;2023-04-24T05:18:49;11.90;99.90
7232;DHT22;3657;49.630;11.018;2023-04-24T05:21:15;12.00;99.90
7232;DHT22;3657;49.630;11.018;2023-04-24T05:23:43;12.00;99.90
7232;DHT22;3657;49.630;11.018;2023-04-24T05:26:10;11.90;99.90
7232;DHT22;3657;49.630;11.018;2023-04-24T05:28:37;11.80;99.90
7232;DHT22;3657;49.630;11.018;2023-04-24T05:31:03;11.70;99.90
7232;DHT22;3657;49.630;11.018;2023-04-24T05:33:30;11.90;99.90
7232;DHT22;3657;49.630;11.018;2023-04-24T05:35:57;12.00;99.90
7232;DHT22;3657;49.630;11.018;2023-04-24T05:38:23;12.10;99.90
7232;DHT22;3657;49.630;11.018;2023-04-24T05:40:51;12.20;99.90
7232;DHT22;3657;49.630;11.018;2023-04-24T05:43:18;12.10;99.90
7232;DHT22;3657;49.630;11.018;2023-04-24T05:45:45;12.10;99.90
7232;DHT22;3657;49.630;11.018;2023-04-24T05:48:11;11.90;99.90
7232;DHT22;3657;49.630;11.018;2023-04-24T05:50:38;12.00;99.90
7232;DHT22;3657;49.630;11.018;2023-04-24T05:53:05;12.00;99.90
7232;DHT22;3657;49.630;11.018;2023-04-24T05:55:32;11.90;99.90
7232;DHT22;3657;49.630;11.018;2023-04-24T05:58:00;11.90;99.90
7232;DHT22;3657;49.630;11.018;2023-04-24T06:00:27;11.90;99.90
7232;DHT22;3657;49.630;11.018;2023-04-24T06:02:54;11.90;99.90
7232;DHT22;3657;49.630;11.018;2023-04-24T06:05:20;11.90;99.90
7232;DHT22;3657;49.630;11.018;2023-04-24T06:07:47;11.90;99.90
7232;DHT22;3657;49.630;11.018;2023-04-24T06:10:14;12.00;99.90
7232;DHT22;3657;49.630;11.018;2023-04-24T06:12:41;12.00;99.90
7232;DHT22;3657;49.630;11.018;2023-04-24T06:15:09;12.00;99.90
7232;DHT22;3657;49.630;11.018;2023-04-24T06:17:37;11.90;99.90
7232;DHT22;3657;49.630;11.018;2023-04-24T06:20:04;12.00;99.90
7232;DHT22;3657;49.630;11.018;2023-04-24T06:22:31;12.00;99.90
7232;DHT22;3657;49.630;11.018;2023-04-24T06:24:59;12.10;99.90
7232;DHT22;3657;49.630;11.018;2023-04-24T06:27:26;12.10;99.90
7232;DHT22;3657;49.630;11.018;2023-04-24T06:29:53;12.20;99.90
7232;DHT22;3657;49.630;11.018;2023-04-24T06:32:22;12.20;99.90
7232;DHT22;3657;49.630;11.018;2023-04-24T06:34:50;12.30;99.90
7232;DHT22;3657;49.630;11.018;2023-04-24T06:37:17;12.30;99.90
7232;DHT22;3657;49.630;11.018;2023-04-24T06:39:44;12.30;99.90
7232;DHT22;3657;49.630;11.018;2023-04-24T06:42:11;12.30;99.90
7232;DHT22;3657;49.630;11.018;2023-04-24T06:44:37;12.40;99.90
7232;DHT22;3657;49.630;11.018;2023-04-24T06:47:06;12.40;99.90
7232;DHT22;3657;49.630;11.018;2023-04-24T06:49:34;12.40;99.90
7232;DHT22;3657;49.630;11.018;2023-04-24T06:52:01;12.40;99.90
7232;DHT22;3657;49.630;11.018;2023-04-24T06:54:28;12.50;99.90
7232;DHT22;3657;49.630;11.018;2023-04-24T06:56:55;12.50;99.90
7232;DHT22;3657;49.630;11.018;2023-04-24T06:59:22;12.50;99.90
7232;DHT22;3657;49.630;11.018;2023-04-24T07:01:49;12.50;99.90
7232;DHT22;3657;49.630;11.018;2023-04-24T07:04:16;12.50;99.90
7232;DHT22;3657;49.630;11.018;2023-04-24T07:06:45;12.50;99.90
7232;DHT22;3657;49.630;11.018;2023-04-24T07:09:12;12.50;99.90
7232;DHT22;3657;49.630;11.018;2023-04-24T07:11:40;12.50;99.90
7232;DHT22;3657;49.630;11.018;2023-04-24T07:14:07;12.50;99.90
7232;DHT22;3657;49.630;11.018;2023-04-24T07:16:34;12.50;99.90
7232;DHT22;3657;49.630;11.018;2023-04-24T07:19:01;12.50;99.90
7232;DHT22;3657;49.630;11.018;2023-04-24T07:21:27;12.60;99.90
7232;DHT22;3657;49.630;11.018;2023-04-24T07:23:55;12.70;99.90
7232;DHT22;3657;49.630;11.018;2023-04-24T07:26:22;12.70;99.90
7232;DHT22;3657;49.630;11.018;2023-04-24T07:28:49;12.70;99.90
7232;DHT22;3657;49.630;11.018;2023-04-24T07:31:15;12.80;99.90
7232;DHT22;3657;49.630;11.018;2023-04-24T07:33:42;12.80;99.90
7232;DHT22;3657;49.630;11.018;2023-04-24T07:36:09;12.80;99.90
7232;DHT22;3657;49.630;11.018;2023-04-24T07:38:40;12.80;99.90
7232;DHT22;3657;49.630;11.018;2023-04-24T07:41:08;12.80;99.90
7232;DHT22;3657;49.630;11.018;2023-04-24T07:43:35;12.80;99.90
7232;DHT22;3657;49.630;11.018;2023-04-24T07:46:02;12.80;99.90
7232;DHT22;3657;49.630;11.018;2023-04-24T07:48:28;12.90;99.90
7232;DHT22;3657;49.630;11.018;2023-04-24T07:50:55;13.00;99.90
7232;DHT22;3657;49.630;11.018;2023-04-24T07:53:22;13.20;99.90
7232;DHT22;3657;49.630;11.018;2023-04-24T07:55:48;13.20;99.90
7232;DHT22;3657;49.630;11.018;2023-04-24T07:58:16;13.30;99.90
7232;DHT22;3657;49.630;11.018;2023-04-24T08:00:43;13.50;99.90
7232;DHT22;3657;49.630;11.018;2023-04-24T08:03:10;13.80;99.90
7232;DHT22;3657;49.630;11.018;2023-04-24T08:05:37;14.10;99.90
7232;DHT22;3657;49.630;11.018;2023-04-24T08:08:04;14.40;99.90
7232;DHT22;3657;49.630;11.018;2023-04-24T08:10:31;14.60;99.90
7232;DHT22;3657;49.630;11.018;2023-04-24T08:12:58;14.60;99.90
7232;DHT22;3657;49.630;11.018;2023-04-24T08:15:27;14.40;99.90
7232;DHT22;3657;49.630;11.018;2023-04-24T08:17:54;14.20;99.90
7232;DHT22;3657;49.630;11.018;2023-04-24T08:20:20;14.00;99.90
7232;DHT22;3657;49.630;11.018;2023-04-24T08:22:47;14.00;99.90
7232;DHT22;3657;49.630;11.018;2023-04-24T08:25:14;13.90;99.90
7232;DHT22;3657;49.630;11.018;2023-04-24T08:27:41;13.90;99.90
7232;DHT22;3657;49.630;11.018;2023-04-24T08:30:08;13.80;99.90
7232;DHT22;3657;49.630;11.018;2023-04-24T08:32:37;13.80;99.90
7232;DHT22;3657;49.630;11.018;2023-04-24T08:35:04;13.70;99.90
7232;DHT22;3657;49.630;11.018;2023-04-24T08:37:31;13.70;99.90
7232;DHT22;3657;49.630;11.018;2023-04-24T08:39:57;13.70;99.90
7232;DHT22;3657;49.630;11.018;2023-04-24T08:42:25;13.60;99.90
7232;DHT22;3657;49.630;11.018;2023-04-24T08:44:55;13.60;99.90
7232;DHT22;3657;49.630;11.018;2023-04-24T08:47:22;13.50;99.90
7232;DHT22;3657;49.630;11.018;2023-04-24T08:49:51;13.50;99.90
7232;DHT22;3657;49.630;11.018;2023-04-24T08:52:18;13.60;99.90
7232;DHT22;3657;49.630;11.018;2023-04-24T08:54:46;13.70;99.90
7232;DHT22;3657;49.630;11.018;2023-04-24T08:57:13;13.70;99.90
7232;DHT22;3657;49.630;11.018;2023-04-24T08:59:40;13.80;99.90
7232;DHT22;3657;49.630;11.018;2023-04-24T09:02:10;13.80;99.90
7232;DHT22;3657;49.630;11.018;2023-04-24T09:04:37;13.80;99.90
7232;DHT22;3657;49.630;11.018;2023-04-24T09:07:06;13.90;99.90
7232;DHT22;3657;49.630;11.018;2023-04-24T09:09:34;13.80;99.90
7232;DHT22;3657;49.630;11.018;2023-04-24T09:12:01;13.80;99.90
7232;DHT22;3657;49.630;11.018;2023-04-24T09:14:29;13.80;99.90
7232;DHT22;3657;49.630;11.018;2023-04-24T09:16:57;13.90;99.90
7232;DHT22;3657;49.630;11.018;2023-04-24T09:19:24;14.10;99.90
7232;DHT22;3657;49.630;11.018;2023-04-24T09:21:52;14.20;99.90
7232;DHT22;3657;49.630;11.018;2023-04-24T09:24:21;14.40;99.90
7232;DHT22;3657;49.630;11.018;2023-04-24T09:26:49;14.50;99.90
7232;DHT22;3657;49.630;11.018;2023-04-24T09:29:22;14.50;99.90
7232;DHT22;3657;49.630;11.018;2023-04-24T09:31:49;14.40;99.90
7232;DHT22;3657;49.630;11.018;2023-04-24T09:34:21;14.30;99.90
7232;DHT22;3657;49.630;11.018;2023-04-24T09:36:47;14.20;99.90
7232;DHT22;3657;49.630;11.018;2023-04-24T09:39:15;14.20;99.90
7232;DHT22;3657;49.630;11.018;2023-04-24T09:41:47;14.20;99.90
7232;DHT22;3657;49.630;11.018;2023-04-24T09:44:15;14.10;99.90
7232;DHT22;3657;49.630;11.018;2023-04-24T09:46:43;14.10;99.90
7232;DHT22;3657;49.630;11.018;2023-04-24T09:49:12;14.30;99.90
7232;DHT22;3657;49.630;11.018;2023-04-24T09:51:39;14.80;99.90
7232;DHT22;3657;49.630;11.018;2023-04-24T09:54:13;15.40;99.90
7232;DHT22;3657;49.630;11.018;2023-04-24T09:56:43;15.80;99.90
7232;DHT22;3657;49.630;11.018;2023-04-24T09:59:12;16.20;99.90
7232;DHT22;3657;49.630;11.018;2023-04-24T10:01:38;16.50;99.90
7232;DHT22;3657;49.630;11.018;2023-04-24T10:04:15;16.80;97.90
7232;DHT22;3657;49.630;11.018;2023-04-24T10:06:42;17.00;98.90
7232;DHT22;3657;49.630;11.018;2023-04-24T10:09:09;17.10;97.80
7232;DHT22;3657;49.630;11.018;2023-04-24T10:11:41;17.20;97.10
7232;DHT22;3657;49.630;11.018;2023-04-24T10:14:10;17.20;98.20
7232;DHT22;3657;49.630;11.018;2023-04-24T10:16:39;17.10;97.00
7232;DHT22;3657;49.630;11.018;2023-04-24T10:19:06;17.10;97.90
7232;DHT22;3657;49.630;11.018;2023-04-24T10:21:34;16.80;97.60
7232;DHT22;3657;49.630;11.018;2023-04-24T10:24:01;16.40;97.60
7232;DHT22;3657;49.630;11.018;2023-04-24T10:26:30;16.00;98.80
7232;DHT22;3657;49.630;11.018;2023-04-24T10:28:58;15.70;99.90
7232;DHT22;3657;49.630;11.018;2023-04-24T10:31:27;15.50;99.90
7232;DHT22;3657;49.630;11.018;2023-04-24T10:33:58;15.40;99.90
7232;DHT22;3657;49.630;11.018;2023-04-24T10:36:25;15.40;99.90
7232;DHT22;3657;49.630;11.018;2023-04-24T10:38:55;15.30;99.60
7232;DHT22;3657;49.630;11.018;2023-04-24T10:41:25;15.40;99.90
7232;DHT22;3657;49.630;11.018;2023-04-24T10:44:04;15.60;99.90
7232;DHT22;3657;49.630;11.018;2023-04-24T10:46:33;15.70;99.90
7232;DHT22;3657;49.630;11.018;2023-04-24T10:49:03;15.80;99.80
7232;DHT22;3657;49.630;11.018;2023-04-24T10:51:45;15.70;99.40
7232;DHT22;3657;49.630;11.018;2023-04-24T10:54:26;15.70;99.90
7232;DHT22;3657;49.630;11.018;2023-04-24T10:56:56;15.80;99.90
7232;DHT22;3657;49.630;11.018;2023-04-24T10:59:40;15.80;99.90
7232;DHT22;3657;49.630;11.018;2023-04-24T11:02:08;16.00;99.80
7232;DHT22;3657;49.630;11.018;2023-04-24T11:04:35;16.10;99.50
7232;DHT22;3657;49.630;11.018;2023-04-24T11:07:02;16.00;98.40
7232;DHT22;3657;49.630;11.018;2023-04-24T11:09:31;16.00;99.00
7232;DHT22;3657;49.630;11.018;2023-04-24T11:12:05;15.90;98.90
7232;DHT22;3657;49.630;11.018;2023-04-24T11:15:00;15.90;98.10
7232;DHT22;3657;49.630;11.018;2023-04-24T11:17:33;15.90;99.10
7232;DHT22;3657;49.630;11.018;2023-04-24T11:20:02;16.00;99.10
7232;DHT22;3657;49.630;11.018;2023-04-24T11:22:33;16.20;98.00
7232;DHT22;3657;49.630;11.018;2023-04-24T11:25:01;16.20;99.50
7232;DHT22;3657;49.630;11.018;2023-04-24T11:27:31;16.30;98.90
7232;DHT22;3657;49.630;11.018;2023-04-24T11:30:03;16.20;97.40
7232;DHT22;3657;49.630;11.018;2023-04-24T11:32:35;16.10;97.20
7232;DHT22;3657;49.630;11.018;2023-04-24T11:35:04;16.10;98.60
7232;DHT22;3657;49.630;11.018;2023-04-24T11:37:35;16.00;98.60
7232;DHT22;3657;49.630;11.018;2023-04-24T11:40:02;16.10;98.10
7232;DHT22;3657;49.630;11.018;2023-04-24T11:42:34;16.00;98.60
7232;DHT22;3657;49.630;11.018;2023-04-24T11:45:00;16.00;98.40
7232;DHT22;3657;49.630;11.018;2023-04-24T11:47:28;15.90;97.30
7232;DHT22;3657;49.630;11.018;2023-04-24T11:49:57;15.90;97.20
7232;DHT22;3657;49.630;11.018;2023-04-24T11:52:24;15.90;97.50
7232;DHT22;3657;49.630;11.018;2023-04-24T11:54:51;15.90;97.70
7232;DHT22;3657;49.630;11.018;2023-04-24T11:57:19;15.80;98.00
7232;DHT22;3657;49.630;11.018;2023-04-24T11:59:46;15.80;96.20
7232;DHT22;3657;49.630;11.018;2023-04-24T12:02:20;15.80;96.80
7232;DHT22;3657;49.630;11.018;2023-04-24T12:04:48;15.90;96.90
7232;DHT22;3657;49.630;11.018;2023-04-24T12:07:16;16.00;95.90
7232;DHT22;3657;49.630;11.018;2023-04-24T12:09:43;16.00;97.50
7232;DHT22;3657;49.630;11.018;2023-04-24T12:12:12;16.10;96.90
7232;DHT22;3657;49.630;11.018;2023-04-24T12:14:43;16.10;97.00
7232;DHT22;3657;49.630;11.018;2023-04-24T12:17:10;16.20;97.70
7232;DHT22;3657;49.630;11.018;2023-04-24T12:19:36;16.20;98.30
7232;DHT22;3657;49.630;11.018;2023-04-24T12:22:05;16.30;98.10
7232;DHT22;3657;49.630;11.018;2023-04-24T12:24:33;16.30;97.00
7232;DHT22;3657;49.630;11.018;2023-04-24T12:27:00;16.30;97.50
7232;DHT22;3657;49.630;11.018;2023-04-24T12:29:27;16.30;97.40
7232;DHT22;3657;49.630;11.018;2023-04-24T12:31:54;16.20;97.70
7232;DHT22;3657;49.630;11.018;2023-04-24T12:34:22;16.20;97.80
7232;DHT22;3657;49.630;11.018;2023-04-24T12:36:50;16.10;97.70
7232;DHT22;3657;49.630;11.018;2023-04-24T12:39:17;16.10;98.40
7232;DHT22;3657;49.630;11.018;2023-04-24T12:41:54;16.10;97.50
7232;DHT22;3657;49.630;11.018;2023-04-24T12:44:29;16.10;97.30
7232;DHT22;3657;49.630;11.018;2023-04-24T12:46:56;16.10;96.90
7232;DHT22;3657;49.630;11.018;2023-04-24T12:49:22;16.00;98.10
7232;DHT22;3657;49.630;11.018;2023-04-24T12:51:49;16.00;97.90
7232;DHT22;3657;49.630;11.018;2023-04-24T12:54:15;16.00;97.50
7232;DHT22;3657;49.630;11.018;2023-04-24T12:56:42;16.00;96.60
7232;DHT22;3657;49.630;11.018;2023-04-24T12:59:10;15.90;97.20
7232;DHT22;3657;49.630;11.018;2023-04-24T13:01:37;15.80;97.70
7232;DHT22;3657;49.630;11.018;2023-04-24T13:04:04;15.80;98.30
7232;DHT22;3657;49.630;11.018;2023-04-24T13:06:31;15.80;98.60
7232;DHT22;3657;49.630;11.018;2023-04-24T13:08:58;15.80;99.10
7232;DHT22;3657;49.630;11.018;2023-04-24T13:11:25;15.90;99.00
7232;DHT22;3657;49.630;11.018;2023-04-24T13:13:51;15.90;98.30
7232;DHT22;3657;49.630;11.018;2023-04-24T13:16:19;16.10;98.30
7232;DHT22;3657;49.630;11.018;2023-04-24T13:18:46;16.00;97.60
7232;DHT22;3657;49.630;11.018;2023-04-24T13:21:13;16.00;98.30
7232;DHT22;3657;49.630;11.018;2023-04-24T13:23:39;15.90;97.70
7232;DHT22;3657;49.630;11.018;2023-04-24T13:26:06;15.70;97.00
7232;DHT22;3657;49.630;11.018;2023-04-24T13:28:33;15.70;98.00
7232;DHT22;3657;49.630;11.018;2023-04-24T13:30:59;15.70;97.60
7232;DHT22;3657;49.630;11.018;2023-04-24T13:33:27;15.60;97.30
7232;DHT22;3657;49.630;11.018;2023-04-24T13:35:55;15.60;97.70
7232;DHT22;3657;49.630;11.018;2023-04-24T13:38:21;15.50;97.70
7232;DHT22;3657;49.630;11.018;2023-04-24T13:40:48;15.40;97.90
7232;DHT22;3657;49.630;11.018;2023-04-24T13:43:15;15.40;97.90
7232;DHT22;3657;49.630;11.018;2023-04-24T13:45:42;15.50;98.00
7232;DHT22;3657;49.630;11.018;2023-04-24T13:48:08;15.50;98.00
7232;DHT22;3657;49.630;11.018;2023-04-24T13:50:36;15.60;97.80
7232;DHT22;3657;49.630;11.018;2023-04-24T13:53:03;15.70;97.90
7232;DHT22;3657;49.630;11.018;2023-04-24T13:55:30;15.80;97.10
7232;DHT22;3657;49.630;11.018;2023-04-24T13:57:56;15.80;97.30
7232;DHT22;3657;49.630;11.018;2023-04-24T14:00:23;15.90;97.80
7232;DHT22;3657;49.630;11.018;2023-04-24T14:02:50;16.00;97.40
7232;DHT22;3657;49.630;11.018;2023-04-24T14:05:17;16.00;97.30
7232;DHT22;3657;49.630;11.018;2023-04-24T14:07:45;16.10;97.10
7232;DHT22;3657;49.630;11.018;2023-04-24T14:10:11;16.10;97.10
7232;DHT22;3657;49.630;11.018;2023-04-24T14:12:38;16.10;97.10
7232;DHT22;3657;49.630;11.018;2023-04-24T14:15:06;16.20;97.00
7232;DHT22;3657;49.630;11.018;2023-04-24T14:17:34;16.30;97.30
7232;DHT22;3657;49.630;11.018;2023-04-24T14:20:00;16.30;96.50
7232;DHT22;3657;49.630;11.018;2023-04-24T14:22:28;16.30;96.60
7232;DHT22;3657;49.630;11.018;2023-04-24T14:24:56;16.30;97.00
7232;DHT22;3657;49.630;11.018;2023-04-24T14:27:24;16.30;96.40
7232;DHT22;3657;49.630;11.018;2023-04-24T14:29:50;16.20;96.80
7232;DHT22;3657;49.630;11.018;2023-04-24T14:32:17;16.20;96.80
7232;DHT22;3657;49.630;11.018;2023-04-24T14:34:44;16.10;95.50
7232;DHT22;3657;49.630;11.018;2023-04-24T14:37:11;16.10;96.30
7232;DHT22;3657;49.630;11.018;2023-04-24T14:39:38;16.20;97.20
7232;DHT22;3657;49.630;11.018;2023-04-24T14:42:06;16.20;96.80
7232;DHT22;3657;49.630;11.018;2023-04-24T14:44:32;16.10;96.20
7232;DHT22;3657;49.630;11.018;2023-04-24T14:46:59;16.10;96.90
7232;DHT22;3657;49.630;11.018;2023-04-24T14:49:26;16.10;96.90
7232;DHT22;3657;49.630;11.018;2023-04-24T14:51:52;16.10;96.80
7232;DHT22;3657;49.630;11.018;2023-04-24T14:54:19;16.10;96.90
7232;DHT22;3657;49.630;11.018;2023-04-24T14:56:48;16.20;97.00
7232;DHT22;3657;49.630;11.018;2023-04-24T14:59:16;16.20;96.10
7232;DHT22;3657;49.630;11.018;2023-04-24T15:01:43;16.20;96.80
7232;DHT22;3657;49.630;11.018;2023-04-24T15:04:10;16.20;96.70
7232;DHT22;3657;49.630;11.018;2023-04-24T15:06:37;16.20;97.20
7232;DHT22;3657;49.630;11.018;2023-04-24T15:09:03;16.30;96.70
7232;DHT22;3657;49.630;11.018;2023-04-24T15:11:30;16.30;96.40
7232;DHT22;3657;49.630;11.018;2023-04-24T15:13:57;16.30;96.00
7232;DHT22;3657;49.630;11.018;2023-04-24T15:16:25;16.30;95.90
7232;DHT22;3657;49.630;11.018;2023-04-24T15:18:52;16.20;95.90
7232;DHT22;3657;49.630;11.018;2023-04-24T15:21:18;16.20;96.10
7232;DHT22;3657;49.630;11.018;2023-04-24T15:23:45;16.20;95.00
7232;DHT22;3657;49.630;11.018;2023-04-24T15:26:12;16.10;95.20
7232;DHT22;3657;49.630;11.018;2023-04-24T15:28:39;16.10;95.70
7232;DHT22;3657;49.630;11.018;2023-04-24T15:31:05;16.00;95.50
7232;DHT22;3657;49.630;11.018;2023-04-24T15:33:33;16.00;96.10
7232;DHT22;3657;49.630;11.018;2023-04-24T15:36:00;16.00;96.70
7232;DHT22;3657;49.630;11.018;2023-04-24T15:38:27;15.90;96.40
7232;DHT22;3657;49.630;11.018;2023-04-24T15:40:53;15.90;95.90
7232;DHT22;3657;49.630;11.018;2023-04-24T15:43:20;15.80;95.90
7232;DHT22;3657;49.630;11.018;2023-04-24T15:45:49;15.60;96.20
7232;DHT22;3657;49.630;11.018;2023-04-24T15:48:16;15.60;95.90